Time;durP1;ratioP1;P1;durP2;ratioP2;P2;SDS_P1;SDS_P2;PMS_P1;PMS_P2;Temp;Humidity;BMP_temperature;BMP_pressure;BME280_temperature;BME280_humidity;BME280_pressure;Samples;Min_cycle;Max_cycle;Signal;HPM_P1;HPM_P2
2021/12/18 00:00:38;;;;;;;0.50;0.50;;;7.30;99.90;;;;;;5116118;28;20040;-81
2021/12/18 00:03:05;;;;;;;0.50;0.50;;;7.30;99.90;;;;;;5114656;27;20063;-82
2021/12/18 00:05:31;;;;;;;;;;;7.30;99.90;;;;;;5116345;28;20089;-80
2021/12/18 00:07:56;;;;;;;0.40;0.40;;;7.30;99.90;;;;;;5116018;28;19915;-80
2021/12/18 00:10:23;;;;;;;0.50;0.50;;;7.30;99.90;;;;;;5116206;28;20059;-83
2021/12/18 00:12:50;;;;;;;0.50;0.50;;;7.30;99.90;;;;;;5114513;28;20065;-77
2021/12/18 00:15:17;;;;;;;0.50;0.50;;;7.30;99.90;;;;;;5115814;28;20080;-82
2021/12/18 00:17:43;;;;;;;0.60;0.60;;;7.30;99.90;;;;;;5114558;28;20123;-82
2021/12/18 00:20:11;;;;;;;0.93;0.93;;;7.30;99.90;;;;;;5115832;28;20440;-82
2021/12/18 00:22:36;;;;;;;0.40;0.40;;;7.30;99.90;;;;;;5114225;28;20039;-82
2021/12/18 00:25:03;;;;;;;0.50;0.50;;;7.20;99.90;;;;;;5114304;28;20443;-83
2021/12/18 00:27:29;;;;;;;1.17;1.08;;;7.20;99.90;;;;;;5115723;27;20069;-80
2021/12/18 00:29:55;;;;;;;0.40;0.40;;;7.10;99.90;;;;;;5115457;28;20047;-80
2021/12/18 00:32:20;;;;;;;0.50;0.50;;;7.10;99.90;;;;;;5115519;28;20039;-80
2021/12/18 00:34:46;;;;;;;0.50;0.50;;;7.10;99.90;;;;;;5115676;28;20032;-81
2021/12/18 00:37:11;;;;;;;0.50;0.50;;;7.10;99.90;;;;;;5114293;28;20044;-81
2021/12/18 00:39:43;;;;;;;0.40;0.40;;;7.10;99.90;;;;;;5115403;28;20036;-80
2021/12/18 00:42:36;;;;;;;0.40;0.40;;;;;;;;;;5115264;28;20490;-81
2021/12/18 00:45:04;;;;;;;0.75;0.75;;;7.10;99.90;;;;;;5115350;28;20073;-80
2021/12/18 00:47:29;;;;;;;0.98;0.93;;;7.10;99.90;;;;;;5114988;28;20051;-80
2021/12/18 00:49:55;;;;;;;1.15;0.50;;;7.00;99.90;;;;;;5113817;28;20472;-80
2021/12/18 00:52:21;;;;;;;0.52;0.52;;;7.10;99.90;;;;;;5113729;28;20050;-80
2021/12/18 00:54:46;;;;;;;0.50;0.50;;;7.00;99.90;;;;;;5115124;28;20032;-81
2021/12/18 00:57:12;;;;;;;0.73;0.73;;;7.00;99.90;;;;;;5115053;28;20032;-80
2021/12/18 00:59:37;;;;;;;0.50;0.50;;;6.90;99.90;;;;;;5115026;28;20085;-80
2021/12/18 01:02:03;;;;;;;0.50;0.50;;;7.00;99.90;;;;;;5115034;28;20043;-81
2021/12/18 01:04:29;;;;;;;0.50;0.50;;;7.00;99.90;;;;;;5114345;28;20127;-80
2021/12/18 01:06:55;;;;;;;0.50;0.50;;;6.90;99.90;;;;;;5114942;28;20122;-82
2021/12/18 01:09:29;;;;;;;0.50;0.50;;;6.90;99.90;;;;;;5114845;28;20471;-81
2021/12/18 01:11:55;;;;;;;0.50;0.50;;;6.90;99.90;;;;;;5114787;28;20060;-81
2021/12/18 01:24:41;;;;;;;0.40;0.40;;;6.90;99.90;;;;;;5114728;28;20074;-81
2021/12/18 01:27:06;;;;;;;0.45;0.45;;;6.90;99.90;;;;;;5114802;28;20071;-81
2021/12/18 01:29:32;;;;;;;0.60;0.60;;;7.00;99.90;;;;;;5113702;28;20076;-81
2021/12/18 01:31:57;;;;;;;0.50;0.50;;;7.00;99.90;;;;;;5114625;28;20104;-81
2021/12/18 01:34:23;;;;;;;0.50;0.50;;;7.00;99.90;;;;;;5114870;28;20067;-81
2021/12/18 01:36:48;;;;;;;0.95;0.88;;;7.00;99.90;;;;;;5114502;28;20030;-81
2021/12/18 01:39:14;;;;;;;0.50;0.50;;;7.00;99.90;;;;;;5114238;28;20050;-81
2021/12/18 01:42:04;;;;;;;1.25;1.15;;;7.00;99.90;;;;;;5113554;28;20040;-81
2021/12/18 01:52:39;;;;;;;0.50;0.50;;;6.90;99.90;;;;;;5114387;28;20130;-81
2021/12/18 01:55:06;;;;;;;0.60;0.60;;;6.90;99.90;;;;;;5114242;28;20075;-80
2021/12/18 01:57:32;;;;;;;0.50;0.50;;;6.80;99.90;;;;;;5114088;28;20035;-80
2021/12/18 01:59:58;;;;;;;0.50;0.50;;;6.80;99.90;;;;;;5114399;28;20035;-81
2021/12/18 02:02:26;;;;;;;0.50;0.50;;;6.80;99.90;;;;;;5113285;28;20066;-80
2021/12/18 02:04:52;;;;;;;0.40;0.40;;;6.80;99.90;;;;;;5114593;28;20354;-80
2021/12/18 02:07:18;;;;;;;0.50;0.50;;;6.80;99.90;;;;;;5114378;28;20075;-80
2021/12/18 02:10:03;;;;;;;0.50;0.50;;;6.80;99.90;;;;;;5114533;28;20044;-80
2021/12/18 02:12:41;;;;;;;0.50;0.50;;;6.80;99.90;;;;;;5114002;28;20055;-81
2021/12/18 02:23:00;;;;;;;0.50;0.50;;;6.80;99.90;;;;;;5118150;28;20048;-80
2021/12/18 02:25:26;;;;;;;0.70;0.70;;;6.90;99.90;;;;;;5118122;28;20499;-80
2021/12/18 02:27:55;;;;;;;0.50;0.50;;;6.80;99.90;;;;;;5117812;28;20372;-81
2021/12/18 02:30:21;;;;;;;0.50;0.50;;;6.80;99.90;;;;;;5118062;28;20387;-80
2021/12/18 02:32:48;;;;;;;0.50;0.50;;;6.70;99.90;;;;;;5118073;27;20043;-80
2021/12/18 02:35:35;;;;;;;0.50;0.50;;;6.70;99.90;;;;;;5117045;28;20081;-80
2021/12/18 02:38:15;;;;;;;0.50;0.50;;;6.60;99.90;;;;;;5118071;28;20110;-80
2021/12/18 02:41:02;;;;;;;1.58;1.05;;;6.60;99.90;;;;;;5117976;28;20044;-80
2021/12/18 02:43:36;;;;;;;0.50;0.50;;;6.60;99.90;;;;;;5117807;28;20043;-80
2021/12/18 02:46:06;;;;;;;0.50;0.50;;;6.50;99.90;;;;;;5116851;28;20039;-80
2021/12/18 02:48:38;;;;;;;0.50;0.50;;;6.40;99.90;;;;;;5117579;27;20051;-81
2021/12/18 02:51:06;;;;;;;0.50;0.50;;;6.40;99.90;;;;;;5099645;28;20511;-83
2021/12/18 02:53:32;;;;;;;0.50;0.50;;;6.50;99.90;;;;;;5116344;28;20067;-81
2021/12/18 02:56:01;;;;;;;0.50;0.50;;;6.50;99.90;;;;;;5117443;28;20107;-79
2021/12/18 02:58:27;;;;;;;0.50;0.50;;;6.50;99.90;;;;;;5117517;28;20035;-80
2021/12/18 03:00:54;;;;;;;1.40;1.00;;;6.40;99.90;;;;;;5117397;28;20036;-80
2021/12/18 03:03:23;;;;;;;0.50;0.50;;;6.40;99.90;;;;;;5117266;28;20346;-81
2021/12/18 03:06:19;;;;;;;0.50;0.50;;;6.40;99.90;;;;;;5115770;28;20043;-80
2021/12/18 03:08:59;;;;;;;0.50;0.50;;;6.40;99.90;;;;;;5116903;28;20050;-81
2021/12/18 03:25:03;;;;;;;0.50;0.50;;;6.50;99.90;;;;;;5116835;28;20044;-80
2021/12/18 03:27:29;;;;;;;0.50;0.50;;;6.50;99.90;;;;;;5116105;28;20063;-80
2021/12/18 03:29:55;;;;;;;0.50;0.50;;;6.50;99.90;;;;;;5115636;28;20380;-81
2021/12/18 03:32:21;;;;;;;0.50;0.50;;;6.50;99.90;;;;;;5116541;28;20035;-80
2021/12/18 03:34:47;;;;;;;0.50;0.50;;;6.50;99.90;;;;;;5116698;28;20039;-81
2021/12/18 03:37:13;;;;;;;0.50;0.50;;;6.50;99.90;;;;;;5115633;28;20043;-81
2021/12/18 03:39:39;;;;;;;0.50;0.50;;;6.50;99.90;;;;;;5116646;28;20042;-80
2021/12/18 03:42:06;;;;;;;0.50;0.50;;;6.50;99.90;;;;;;5116264;28;20035;-81
2021/12/18 03:44:32;;;;;;;;;;;6.50;99.90;;;;;;5116674;28;20497;-81
2021/12/18 03:46:57;;;;;;;0.50;0.50;;;6.50;99.90;;;;;;5116473;28;19973;-81
2021/12/18 03:49:23;;;;;;;0.50;0.50;;;6.50;99.90;;;;;;5116027;28;20470;-80
2021/12/18 03:51:49;;;;;;;0.50;0.50;;;6.50;99.90;;;;;;5114965;28;20092;-80
2021/12/18 03:54:14;;;;;;;0.43;0.43;;;6.50;99.90;;;;;;5115111;28;20039;-81
2021/12/18 03:56:40;;;;;;;0.50;0.50;;;6.50;99.90;;;;;;5116302;28;20028;-82
2021/12/18 03:59:05;;;;;;;0.50;0.50;;;6.50;99.90;;;;;;5115085;28;20356;-82
2021/12/18 04:01:31;;;;;;;0.50;0.50;;;6.50;99.90;;;;;;5116124;28;20096;-82
2021/12/18 04:03:57;;;;;;;0.50;0.50;;;6.50;99.90;;;;;;5116096;28;20511;-82
2021/12/18 04:06:22;;;;;;;0.50;0.50;;;6.50;99.90;;;;;;5116093;28;20076;-82
2021/12/18 04:08:48;;;;;;;0.70;0.70;;;6.50;99.90;;;;;;5115099;28;20051;-81
2021/12/18 04:11:13;;;;;;;0.50;0.50;;;6.50;99.90;;;;;;5115968;28;20050;-81
2021/12/18 04:13:45;;;;;;;0.50;0.50;;;6.50;99.90;;;;;;5115719;28;20426;-80
2021/12/18 04:16:12;;;;;;;0.47;0.47;;;6.40;99.90;;;;;;5116174;28;20380;-81
2021/12/18 04:18:37;;;;;;;0.47;0.47;;;6.40;99.90;;;;;;5097549;28;20047;-82
2021/12/18 04:21:03;;;;;;;0.50;0.50;;;6.40;99.90;;;;;;5115767;28;20062;-80
2021/12/18 04:23:29;;;;;;;0.50;0.50;;;6.30;99.90;;;;;;5115868;28;20027;-82
2021/12/18 04:25:55;;;;;;;0.50;0.50;;;6.30;99.90;;;;;;5115781;28;20043;-82
2021/12/18 04:28:22;;;;;;;0.50;0.50;;;6.20;99.90;;;;;;5115866;28;20043;-80
2021/12/18 04:30:48;;;;;;;0.50;0.50;;;6.20;99.90;;;;;;5114515;28;20076;-82
2021/12/18 04:33:14;;;;;;;0.50;0.50;;;6.10;99.90;;;;;;5114382;28;20040;-81
2021/12/18 04:35:40;;;;;;;0.50;0.50;;;6.20;99.90;;;;;;5115642;28;20042;-82
2021/12/18 04:38:06;;;;;;;0.50;0.50;;;6.20;99.90;;;;;;5113553;28;20031;-82
2021/12/18 04:40:32;;;;;;;0.50;0.50;;;6.00;99.90;;;;;;5115126;28;20142;-81
2021/12/18 04:42:57;;;;;;;0.50;0.50;;;6.00;99.90;;;;;;5115187;28;20126;-81
2021/12/18 04:45:24;;;;;;;0.50;0.50;;;6.00;99.90;;;;;;5115086;28;20043;-81
2021/12/18 04:47:50;;;;;;;0.50;0.50;;;5.90;99.90;;;;;;5115152;28;20051;-82
2021/12/18 04:50:16;;;;;;;0.50;0.50;;;5.90;99.90;;;;;;5115246;28;20046;-82
2021/12/18 04:52:41;;;;;;;0.50;0.50;;;5.90;99.90;;;;;;5115170;28;20035;-81
2021/12/18 04:55:07;;;;;;;0.50;0.50;;;5.90;99.90;;;;;;5115254;28;20036;-82
2021/12/18 04:57:33;;;;;;;0.60;0.60;;;5.90;99.90;;;;;;5115190;28;20067;-82
2021/12/18 04:59:59;;;;;;;0.50;0.50;;;5.90;99.90;;;;;;5115252;28;20031;-80
2021/12/18 05:02:35;;;;;;;0.50;0.50;;;6.00;99.90;;;;;;5115150;28;20035;-82
2021/12/18 05:05:01;;;;;;;0.50;0.50;;;5.90;99.90;;;;;;5114930;28;20486;-82
2021/12/18 05:07:27;;;;;;;0.75;0.75;;;6.00;99.90;;;;;;5115158;28;20077;-82
2021/12/18 05:09:53;;;;;;;0.60;0.60;;;6.00;99.90;;;;;;5113697;28;20040;-83
2021/12/18 05:12:18;;;;;;;0.70;0.70;;;5.90;99.90;;;;;;5113689;28;20126;-81
2021/12/18 05:14:44;;;;;;;0.50;0.50;;;5.90;99.90;;;;;;5114860;28;20437;-82
2021/12/18 05:17:10;;;;;;;0.50;0.50;;;5.90;99.90;;;;;;5114855;28;20031;-83
2021/12/18 05:19:35;;;;;;;0.50;0.50;;;5.90;99.90;;;;;;5114807;28;20032;-82
2021/12/18 05:22:02;;;;;;;2.20;1.35;;;5.90;99.90;;;;;;5114712;28;20484;-81
2021/12/18 05:24:27;;;;;;;0.50;0.50;;;5.90;99.90;;;;;;5114644;28;20036;-81
2021/12/18 05:26:53;;;;;;;0.50;0.50;;;5.90;99.90;;;;;;5114640;28;20043;-81
2021/12/18 05:29:18;;;;;;;0.60;0.60;;;6.00;99.90;;;;;;5114772;28;20041;-82
2021/12/18 05:31:45;;;;;;;0.50;0.50;;;5.90;99.90;;;;;;5114660;28;20054;-81
2021/12/18 05:34:12;;;;;;;2.08;1.88;;;5.90;99.90;;;;;;5114913;28;20046;-81
2021/12/18 05:37:12;;;;;;;0.50;0.50;;;5.90;99.90;;;;;;5114773;28;20039;-80
2021/12/18 05:39:28;;;;;;;0.50;0.50;;;5.90;99.90;;;;;;5114517;28;20039;-81
2021/12/18 05:41:56;;;;;;;0.50;0.50;;;5.90;99.90;;;;;;5114693;28;20036;-82
2021/12/18 05:44:23;;;;;;;0.50;0.50;;;5.90;99.90;;;;;;5114444;28;20042;-82
2021/12/18 05:46:50;;;;;;;0.50;0.50;;;5.90;99.90;;;;;;5114302;28;20092;-82
2021/12/18 05:49:17;;;;;;;0.50;0.50;;;5.90;99.90;;;;;;5113856;28;20044;-81
2021/12/18 05:51:43;;;;;;;0.60;0.60;;;6.00;99.90;;;;;;5113995;28;20048;-82
2021/12/18 05:54:10;;;;;;;0.50;0.50;;;5.90;99.90;;;;;;5113008;28;20063;-82
2021/12/18 05:56:36;;;;;;;0.50;0.50;;;5.90;99.90;;;;;;5113180;28;20036;-82
2021/12/18 05:59:03;;;;;;;0.50;0.50;;;6.00;99.90;;;;;;5114627;28;20054;-79
2021/12/18 06:01:29;;;;;;;0.50;0.50;;;6.00;99.90;;;;;;5114563;28;20044;-80
2021/12/18 06:03:55;;;;;;;0.50;0.50;;;6.00;99.90;;;;;;5114433;28;20101;-82
2021/12/18 06:06:23;;;;;;;0.50;0.50;;;6.00;99.90;;;;;;5112989;28;20040;-81
2021/12/18 06:08:50;;;;;;;0.50;0.50;;;6.10;99.90;;;;;;5114156;28;20383;-82
2021/12/18 06:11:17;;;;;;;0.50;0.50;;;6.10;99.90;;;;;;5114126;28;20073;-82
2021/12/18 06:13:47;;;;;;;;;;;6.10;99.90;;;;;;5114462;28;20036;-80
2021/12/18 06:16:14;;;;;;;0.70;0.70;;;6.10;99.90;;;;;;5113732;28;19916;-81
2021/12/18 06:18:42;;;;;;;0.50;0.50;;;6.10;99.90;;;;;;5114107;28;20035;-82
2021/12/18 06:21:09;;;;;;;0.60;0.60;;;6.10;99.90;;;;;;5113928;28;20040;-85
2021/12/18 06:23:35;;;;;;;0.60;0.60;;;6.10;99.90;;;;;;5113695;28;20471;-81
2021/12/18 06:26:01;;;;;;;0.50;0.50;;;6.10;99.90;;;;;;5112489;28;20046;-83
2021/12/18 06:28:26;;;;;;;0.50;0.50;;;6.10;99.90;;;;;;5112628;28;20039;-81
2021/12/18 06:30:52;;;;;;;0.50;0.50;;;6.10;99.90;;;;;;5112605;28;20039;-88
2021/12/18 06:33:19;;;;;;;0.50;0.50;;;6.20;99.90;;;;;;5095305;28;20165;-86
2021/12/18 06:35:45;;;;;;;0.50;0.50;;;6.20;99.90;;;;;;5113825;28;20368;-82
2021/12/18 06:38:10;;;;;;;0.50;0.50;;;6.20;99.90;;;;;;5113934;28;20039;-81
2021/12/18 06:40:36;;;;;;;0.50;0.50;;;6.20;99.90;;;;;;5112647;28;20600;-82
2021/12/18 06:43:02;;;;;;;0.50;0.50;;;6.20;99.90;;;;;;5113964;28;20114;-81
2021/12/18 06:45:28;;;;;;;0.40;0.40;;;6.20;99.90;;;;;;5112797;28;20047;-81
2021/12/18 06:47:54;;;;;;;0.82;0.82;;;6.20;99.90;;;;;;5112541;28;20131;-83
2021/12/18 06:50:20;;;;;;;0.50;0.50;;;6.20;99.90;;;;;;5113667;28;20039;-83
2021/12/18 06:52:46;;;;;;;0.50;0.50;;;6.30;99.90;;;;;;5113688;28;20051;-82
2021/12/18 06:55:12;;;;;;;0.50;0.50;;;6.30;99.90;;;;;;5113777;28;20395;-82
2021/12/18 06:57:38;;;;;;;0.50;0.50;;;;;;;;;;5113739;28;20035;-82
2021/12/18 07:00:10;;;;;;;0.50;0.50;;;6.30;99.90;;;;;;5113544;28;20040;-78
2021/12/18 07:02:35;;;;;;;0.50;0.50;;;6.30;99.90;;;;;;5115408;28;20038;-84
2021/12/18 07:05:01;;;;;;;0.50;0.50;;;6.30;99.90;;;;;;5116068;28;20039;-82
2021/12/18 07:07:27;;;;;;;0.50;0.50;;;6.30;99.90;;;;;;5117246;28;20086;-83
2021/12/18 07:09:52;;;;;;;0.50;0.50;;;6.90;99.90;;;;;;5117431;28;20078;-83
2021/12/18 07:12:18;;;;;;;0.50;0.50;;;6.30;99.90;;;;;;5099040;28;20032;-82
2021/12/18 07:14:43;;;;;;;0.50;0.50;;;6.30;99.90;;;;;;5117251;28;20032;-84
2021/12/18 07:17:09;;;;;;;0.50;0.50;;;6.30;99.90;;;;;;5116814;28;20089;-81
2021/12/18 07:19:36;;;;;;;0.50;0.50;;;6.30;99.90;;;;;;5098701;28;20032;-82
2021/12/18 07:22:02;;;;;;;0.50;0.50;;;6.60;99.90;;;;;;5117138;28;20039;-80
2021/12/18 07:24:28;;;;;;;0.50;0.50;;;6.30;99.90;;;;;;5117064;28;20074;-79
2021/12/18 07:26:54;;;;;;;0.50;0.50;;;6.30;99.90;;;;;;5115991;28;20071;-81
2021/12/18 07:29:20;;;;;;;0.50;0.50;;;6.30;99.90;;;;;;5150200;27;20043;-78
2021/12/18 07:31:45;;;;;;;0.50;0.50;;;6.30;99.90;;;;;;5116945;28;20031;-79
2021/12/18 07:34:11;;;;;;;1.15;1.15;;;6.30;99.90;;;;;;5117684;28;20304;-80
2021/12/18 07:36:37;;;;;;;0.50;0.50;;;6.30;99.90;;;;;;5118067;28;20502;-79
2021/12/18 07:39:03;;;;;;;0.50;0.50;;;6.30;99.90;;;;;;5118311;28;20036;-80
2021/12/18 07:41:29;;;;;;;0.60;0.60;;;6.40;99.90;;;;;;5119531;28;20040;-81
2021/12/18 07:43:55;;;;;;;0.50;0.50;;;6.30;99.90;;;;;;5121141;28;20040;-81
2021/12/18 07:46:20;;;;;;;0.60;0.60;;;6.40;99.90;;;;;;5119554;28;20046;-81
2021/12/18 07:48:46;;;;;;;0.50;0.50;;;6.40;99.90;;;;;;5124258;28;20090;-80
2021/12/18 07:51:12;;;;;;;0.50;0.50;;;6.40;99.90;;;;;;5123163;28;20044;-81
2021/12/18 07:53:37;;;;;;;0.50;0.50;;;6.40;99.90;;;;;;5117004;28;20483;-78
2021/12/18 07:56:04;;;;;;;0.60;0.60;;;6.40;99.90;;;;;;5115419;28;20472;-81
2021/12/18 07:58:30;;;;;;;0.50;0.50;;;6.40;99.90;;;;;;5116201;28;20028;-81
2021/12/18 08:00:56;;;;;;;0.50;0.50;;;6.40;99.90;;;;;;5116461;28;20364;-80
2021/12/18 08:03:21;;;;;;;0.50;0.50;;;6.40;99.90;;;;;;5117176;28;20089;-80
2021/12/18 08:05:47;;;;;;;0.50;0.50;;;6.40;99.90;;;;;;5116824;28;20122;-81
2021/12/18 08:08:12;;;;;;;0.50;0.50;;;6.40;99.90;;;;;;5117134;28;20046;-81
2021/12/18 08:10:38;;;;;;;0.60;0.60;;;6.40;99.90;;;;;;5117463;28;20114;-81
2021/12/18 08:13:04;;;;;;;0.50;0.50;;;6.40;99.90;;;;;;5117342;28;20445;-81
2021/12/18 08:15:30;;;;;;;0.50;0.50;;;6.50;99.90;;;;;;5116455;28;20039;-81
2021/12/18 08:17:58;;;;;;;0.40;0.40;;;6.50;99.90;;;;;;5116821;28;20039;-80
2021/12/18 08:20:24;;;;;;;0.50;0.50;;;6.50;99.90;;;;;;5117152;28;20039;-81
2021/12/18 08:22:52;;;;;;;0.50;0.50;;;6.50;99.90;;;;;;5119727;28;20023;-81
2021/12/18 08:25:18;;;;;;;0.50;0.50;;;6.50;99.90;;;;;;5116084;28;20054;-80
2021/12/18 08:27:43;;;;;;;0.50;0.50;;;6.50;99.90;;;;;;5115857;28;20032;-80
2021/12/18 08:30:09;;;;;;;0.57;0.57;;;6.50;99.90;;;;;;5115970;28;20130;-81
2021/12/18 08:32:35;;;;;;;0.50;0.50;;;6.60;99.90;;;;;;5115785;28;20390;-81
2021/12/18 08:35:01;;;;;;;0.50;0.50;;;6.60;99.90;;;;;;5118119;28;20526;-81
2021/12/18 08:37:26;;;;;;;0.50;0.50;;;6.60;99.90;;;;;;5116855;28;20031;-80
2021/12/18 08:39:52;;;;;;;0.50;0.50;;;6.60;99.90;;;;;;5118352;28;20118;-80
2021/12/18 08:42:17;;;;;;;0.60;0.60;;;6.60;99.90;;;;;;5115984;28;20424;-81
2021/12/18 08:44:44;;;;;;;0.50;0.50;;;6.60;99.90;;;;;;5117087;28;20419;-79
2021/12/18 08:47:10;;;;;;;0.50;0.50;;;6.60;99.90;;;;;;5116154;28;20069;-81
2021/12/18 08:49:38;;;;;;;0.50;0.50;;;6.60;99.90;;;;;;5115049;28;20051;-80
2021/12/18 08:52:03;;;;;;;0.50;0.50;;;6.70;99.90;;;;;;5116072;28;20046;-81
2021/12/18 08:54:29;;;;;;;0.50;0.50;;;6.70;99.90;;;;;;5115456;28;20035;-81
2021/12/18 08:56:55;;;;;;;0.50;0.50;;;6.70;99.90;;;;;;5115202;28;20035;-80
2021/12/18 08:59:20;;;;;;;0.50;0.50;;;6.70;99.90;;;;;;5115482;28;20042;-80
2021/12/18 09:01:46;;;;;;;0.50;0.50;;;6.70;99.90;;;;;;5115162;28;20406;-80
2021/12/18 09:04:12;;;;;;;0.50;0.50;;;6.70;99.90;;;;;;5114905;28;20035;-81
2021/12/18 09:06:37;;;;;;;0.50;0.50;;;6.70;99.90;;;;;;5113776;28;20051;-82
2021/12/18 09:09:04;;;;;;;0.40;0.40;;;6.70;99.90;;;;;;5115174;28;20067;-80
2021/12/18 09:11:29;;;;;;;0.50;0.50;;;6.70;99.90;;;;;;5114975;28;20125;-81
2021/12/18 09:13:55;;;;;;;0.77;0.77;;;6.80;99.90;;;;;;5114826;28;20180;-81
2021/12/18 09:16:21;;;;;;;0.45;0.45;;;6.80;99.90;;;;;;5115010;28;20106;-81
2021/12/18 09:18:46;;;;;;;0.50;0.50;;;6.80;99.90;;;;;;5114891;28;20039;-80
2021/12/18 09:21:12;;;;;;;0.50;0.50;;;6.80;99.90;;;;;;5114618;28;20118;-81
2021/12/18 09:23:38;;;;;;;0.50;0.50;;;6.90;99.90;;;;;;5114870;28;20047;-81
2021/12/18 09:26:04;;;;;;;0.50;0.50;;;6.90;99.90;;;;;;5114334;28;20086;-81
2021/12/18 09:28:29;;;;;;;0.50;0.50;;;6.90;99.90;;;;;;5114850;28;20071;-81
2021/12/18 09:30:55;;;;;;;0.50;0.50;;;7.00;99.90;;;;;;5114922;28;20115;-80
2021/12/18 09:33:22;;;;;;;0.50;0.50;;;7.00;99.90;;;;;;5114649;28;20040;-80
2021/12/18 09:35:48;;;;;;;0.50;0.50;;;7.00;99.90;;;;;;5114561;28;20498;-80
2021/12/18 09:38:14;;;;;;;0.50;0.50;;;7.00;99.90;;;;;;5113452;28;20035;-80
2021/12/18 09:40:40;;;;;;;0.50;0.50;;;7.10;99.90;;;;;;5114712;28;20540;-80
2021/12/18 09:43:05;;;;;;;0.88;0.88;;;7.10;99.90;;;;;;5114588;28;20047;-80
2021/12/18 09:45:31;;;;;;;0.50;0.50;;;7.20;99.90;;;;;;5114462;28;20035;-80
2021/12/18 09:47:57;;;;;;;0.40;0.40;;;7.10;99.90;;;;;;5114264;28;20135;-81
2021/12/18 09:50:26;;;;;;;0.50;0.50;;;7.20;99.90;;;;;;5114506;28;20043;-79
2021/12/18 09:52:52;;;;;;;0.40;0.40;;;7.20;99.90;;;;;;5114261;28;20047;-80
2021/12/18 09:55:19;;;;;;;0.50;0.50;;;7.30;99.90;;;;;;5114545;28;20379;-79
2021/12/18 09:57:46;;;;;;;0.50;0.50;;;7.30;99.90;;;;;;5114146;28;20043;-79
2021/12/18 10:00:15;;;;;;;0.40;0.40;;;7.30;99.90;;;;;;5114229;28;20038;-80
2021/12/18 10:02:41;;;;;;;0.50;0.50;;;7.30;99.90;;;;;;5114089;28;20122;-80
2021/12/18 10:05:17;;;;;;;0.50;0.50;;;7.40;99.90;;;;;;5112958;28;20114;-79
2021/12/18 10:07:43;;;;;;;0.50;0.50;;;7.40;99.90;;;;;;5114536;28;20047;-79
2021/12/18 10:10:10;;;;;;;0.47;0.47;;;7.40;99.90;;;;;;5112730;28;20069;-79
2021/12/18 10:12:36;;;;;;;0.50;0.50;;;7.40;99.90;;;;;;5113905;28;20040;-80
2021/12/18 10:15:14;;;;;;;0.50;0.50;;;7.50;99.90;;;;;;5113956;28;20036;-80
2021/12/18 10:17:42;;;;;;;0.50;0.50;;;7.50;99.90;;;;;;5113996;28;20047;-80
2021/12/18 10:20:10;;;;;;;0.50;0.50;;;7.50;99.90;;;;;;5113988;28;20051;-80
2021/12/18 10:22:51;;;;;;;0.70;0.70;;;7.60;99.90;;;;;;5112386;28;20403;-80
2021/12/18 10:25:21;;;;;;;0.40;0.40;;;7.60;99.90;;;;;;5114023;28;20436;-79
2021/12/18 10:27:57;;;;;;;0.40;0.40;;;7.60;99.90;;;;;;5113909;28;20395;-80
2021/12/18 10:30:23;;;;;;;0.50;0.50;;;7.70;99.90;;;;;;5114257;28;20092;-81
2021/12/18 10:33:05;;;;;;;0.43;0.43;;;7.70;99.90;;;;;;5113855;28;20043;-80
2021/12/18 10:35:45;;;;;;;0.45;0.45;;;7.70;99.90;;;;;;5113946;28;20077;-80
2021/12/18 10:38:35;;;;;;;0.40;0.40;;;7.80;99.90;;;;;;5116654;28;20372;-79
2021/12/18 10:41:01;;;;;;;0.40;0.40;;;7.80;99.90;;;;;;5117845;28;20040;-80
2021/12/18 10:44:01;;;;;;;0.40;0.40;;;7.80;99.90;;;;;;5117970;28;20036;-79
2021/12/18 10:46:28;;;;;;;0.50;0.50;;;7.80;99.90;;;;;;5117864;28;20043;-80
2021/12/18 10:49:00;;;;;;;0.45;0.45;;;7.90;99.90;;;;;;5117347;28;20510;-79
2021/12/18 10:51:28;;;;;;;0.40;0.40;;;7.90;99.90;;;;;;5117852;28;20047;-80
2021/12/18 10:54:18;;;;;;;0.40;0.40;;;7.90;99.90;;;;;;5117658;28;20067;-79
2021/12/18 10:56:48;;;;;;;0.68;0.68;;;7.90;99.90;;;;;;5117652;28;20032;-80
2021/12/18 10:59:24;;;;;;;0.50;0.50;;;8.00;99.90;;;;;;5117686;28;20043;-80
2021/12/18 11:01:55;;;;;;;2.45;0.70;;;8.00;99.90;;;;;;5117576;28;20043;-80
2021/12/18 11:04:25;;;;;;;0.40;0.40;;;8.00;99.90;;;;;;5117374;28;20039;-80
2021/12/18 11:06:50;;;;;;;0.40;0.40;;;8.00;99.90;;;;;;5117819;28;20035;-80
2021/12/18 11:09:17;;;;;;;0.52;0.52;;;8.10;99.90;;;;;;5116317;28;20491;-80
2021/12/18 11:14:40;;;;;;;0.50;0.50;;;8.10;99.90;;;;;;5117511;28;20043;-81
2021/12/18 11:17:12;;;;;;;0.40;0.40;;;8.20;99.90;;;;;;5117452;28;20036;-81
2021/12/18 11:19:40;;;;;;;0.50;0.50;;;8.20;99.90;;;;;;5116109;28;20046;-81
2021/12/18 11:22:08;;;;;;;0.50;0.50;;;8.20;99.90;;;;;;5117177;28;20088;-81
2021/12/18 11:25:04;;;;;;;1.23;0.80;;;8.20;99.90;;;;;;5117203;28;20169;-81
2021/12/18 11:27:32;;;;;;;0.40;0.40;;;8.30;99.90;;;;;;5117124;28;20430;-80
2021/12/18 11:30:06;;;;;;;0.50;0.50;;;8.30;99.90;;;;;;5116857;28;20110;-81
2021/12/18 11:32:35;;;;;;;0.45;0.45;;;8.40;99.90;;;;;;5116736;28;20032;-81
2021/12/18 11:35:05;;;;;;;1.30;1.30;;;8.40;99.90;;;;;;5117037;28;20071;-81
2021/12/18 11:37:45;;;;;;;0.43;0.43;;;8.40;99.90;;;;;;5116725;28;20035;-81
2021/12/18 11:40:15;;;;;;;0.50;0.50;;;8.40;99.90;;;;;;5116562;28;20495;-81
2021/12/18 11:42:42;;;;;;;0.40;0.40;;;8.40;99.90;;;;;;5116687;28;20040;-81
2021/12/18 11:45:08;;;;;;;0.60;0.60;;;8.50;99.90;;;;;;5116433;28;20040;-80
2021/12/18 11:47:36;;;;;;;0.50;0.50;;;8.50;99.90;;;;;;5115713;28;20184;-81
2021/12/18 11:50:26;;;;;;;0.40;0.40;;;8.40;99.90;;;;;;5116782;28;20282;-81
2021/12/18 11:53:14;;;;;;;0.40;0.40;;;8.50;99.90;;;;;;5116396;28;20498;-81
2021/12/18 11:55:49;;;;;;;0.40;0.40;;;8.50;99.90;;;;;;5115742;28;20128;-80
2021/12/18 11:58:17;;;;;;;0.50;0.50;;;8.50;99.90;;;;;;5115024;28;20444;-80
2021/12/18 12:00:58;;;;;;;0.60;0.60;;;8.50;99.90;;;;;;5116584;28;20035;-81
2021/12/18 12:03:43;;;;;;;0.50;0.50;;;8.50;99.90;;;;;;5116586;28;20039;-80
2021/12/18 12:06:30;;;;;;;0.45;0.45;;;8.50;99.90;;;;;;5098069;28;20039;-80
2021/12/18 12:09:37;;;;;;;0.40;0.40;;;8.50;99.90;;;;;;5116841;28;20040;-80
2021/12/18 12:12:11;;;;;;;0.90;0.82;;;8.50;99.90;;;;;;5033356;28;20083;-81
2021/12/18 12:14:39;;;;;;;0.82;0.50;;;8.60;99.90;;;;;;5107688;28;20048;-81
2021/12/18 12:17:10;;;;;;;0.40;0.40;;;8.60;99.90;;;;;;5116016;28;20027;-80
2021/12/18 12:19:36;;;;;;;0.40;0.40;;;8.60;99.90;;;;;;5115842;28;20495;-81
2021/12/18 12:22:29;;;;;;;0.50;0.50;;;8.60;99.90;;;;;;5115848;28;20117;-81
2021/12/18 12:24:57;;;;;;;0.40;0.40;;;8.60;99.90;;;;;;5115866;28;20071;-81
2021/12/18 12:27:34;;;;;;;0.50;0.50;;;8.70;99.90;;;;;;5115985;28;20118;-81
2021/12/18 12:30:05;;;;;;;0.60;0.60;;;8.70;99.90;;;;;;5116123;28;20036;-80
2021/12/18 12:32:31;;;;;;;0.40;0.40;;;8.70;99.90;;;;;;5115803;28;20475;-80
2021/12/18 12:35:10;;;;;;;0.70;0.70;;;8.70;99.90;;;;;;5116034;28;20392;-82
2021/12/18 12:37:41;;;;;;;0.50;0.50;;;8.70;99.90;;;;;;5114719;28;20039;-81
2021/12/18 12:40:11;;;;;;;0.40;0.40;;;8.80;99.90;;;;;;5115444;28;20483;-80
2021/12/18 12:42:39;;;;;;;0.50;0.50;;;8.70;99.90;;;;;;5115845;28;20104;-79
2021/12/18 12:45:12;;;;;;;0.50;0.50;;;8.70;99.90;;;;;;5115804;28;20069;-81
2021/12/18 12:47:39;;;;;;;0.50;0.50;;;8.70;99.90;;;;;;5114136;28;20048;-81
2021/12/18 12:50:07;;;;;;;0.40;0.40;;;8.70;99.90;;;;;;5114084;28;20051;-81
2021/12/18 12:52:48;;;;;;;0.40;0.40;;;8.80;99.90;;;;;;5116674;28;20043;-80
2021/12/18 12:55:18;;;;;;;0.40;0.40;;;8.70;99.90;;;;;;5118983;28;20498;-79
2021/12/18 12:57:55;;;;;;;0.60;0.60;;;8.70;99.90;;;;;;5116864;28;20048;-80
2021/12/18 13:00:21;;;;;;;0.40;0.40;;;8.70;99.90;;;;;;5118992;28;20039;-80
2021/12/18 13:03:11;;;;;;;0.50;0.50;;;8.70;99.90;;;;;;5118231;28;20088;-80
2021/12/18 13:05:51;;;;;;;0.55;0.55;;;8.70;99.90;;;;;;5116407;28;20069;-81
2021/12/18 13:08:17;;;;;;;0.50;0.50;;;8.60;99.90;;;;;;5116113;28;20043;-79
2021/12/18 13:10:43;;;;;;;0.60;0.60;;;8.60;99.90;;;;;;5115064;28;20046;-81
2021/12/18 13:13:12;;;;;;;0.40;0.40;;;8.70;99.90;;;;;;5115239;28;20490;-80
2021/12/18 13:15:58;;;;;;;0.50;0.50;;;8.60;99.90;;;;;;5114471;28;20488;-81
2021/12/18 13:18:42;;;;;;;0.50;0.50;;;8.60;99.90;;;;;;5113619;28;20035;-80
2021/12/18 13:21:14;;;;;;;0.40;0.40;;;8.60;99.90;;;;;;5114728;28;20046;-81
2021/12/18 13:24:00;;;;;;;0.65;0.65;;;8.60;99.90;;;;;;5113490;28;20063;-81
2021/12/18 13:26:28;;;;;;;0.70;0.70;;;8.60;99.90;;;;;;5115074;28;20038;-80
2021/12/18 13:28:57;;;;;;;0.95;0.93;;;8.60;99.90;;;;;;5100804;28;20058;-81
2021/12/18 13:31:27;;;;;;;0.43;0.43;;;8.60;99.90;;;;;;5116571;28;20031;-81
2021/12/18 13:34:06;;;;;;;0.43;0.43;;;8.60;99.90;;;;;;5115334;28;20043;-81
2021/12/18 13:36:42;;;;;;;0.40;0.40;;;8.60;99.90;;;;;;5114891;28;20468;-80
2021/12/18 13:39:34;;;;;;;0.40;0.40;;;8.60;99.90;;;;;;5114735;28;20080;-80
2021/12/18 13:42:09;;;;;;;1.08;1.02;;;8.60;99.90;;;;;;5110437;28;20387;-80
2021/12/18 13:44:57;;;;;;;0.50;0.50;;;8.60;99.90;;;;;;5114636;28;20050;-80
2021/12/18 13:47:28;;;;;;;0.50;0.50;;;8.60;99.90;;;;;;5114366;28;20039;-81
2021/12/18 13:50:08;;;;;;;0.50;0.50;;;8.60;99.90;;;;;;5114881;28;20047;-80